Time;durP1;ratioP1;P1;durP2;ratioP2;P2;SDS_P1;SDS_P2;PMS_P1;PMS_P2;Temp;Humidity;BMP_temperature;BMP_pressure;BME280_temperature;BME280_humidity;BME280_pressure;Samples;Min_cycle;Max_cycle;Signal;HPM_P1;HPM_P2
2022/05/16 00:01:50;;;;;;;0.68;0.68;;;22.30;39.80;;;26.18;25.98;101759.72;5093877;28;20048;-12
2022/05/16 00:04:16;;;;;;;0.88;0.70;;;22.30;39.80;;;26.16;26.23;101756.28;5074339;28;20475;-12
2022/05/16 00:06:42;;;;;;;0.70;0.65;;;22.30;39.80;;;26.13;26.12;101745.78;5094482;28;20111;-12
2022/05/16 00:09:08;;;;;;;0.95;0.80;;;22.30;39.80;;;26.17;26.06;101754.47;5093770;28;20094;-12
2022/05/16 00:11:34;;;;;;;0.60;0.60;;;22.30;39.80;;;26.15;26.14;101756.41;5093804;28;20048;-12
2022/05/16 00:14:00;;;;;;;0.63;0.52;;;22.30;39.80;;;26.15;26.12;101759.06;5093820;28;20051;-12
2022/05/16 00:16:26;;;;;;;0.60;0.60;;;22.30;39.80;;;26.13;26.09;101758.31;5093612;28;20047;-12
2022/05/16 00:18:52;;;;;;;0.60;0.60;;;22.30;39.80;;;26.15;25.96;101756.41;5093557;28;20139;-12
2022/05/16 00:21:19;;;;;;;0.60;0.60;;;22.30;39.80;;;26.12;26.12;101759.28;5093458;28;20118;-12
2022/05/16 00:23:45;;;;;;;0.70;0.70;;;22.30;39.80;;;26.12;26.06;101765.50;5093930;28;20048;-12
2022/05/16 00:26:11;;;;;;;0.55;0.50;;;22.30;39.80;;;26.16;26.13;101768.81;5093782;28;20097;-12
2022/05/16 00:28:37;;;;;;;1.17;0.90;;;22.30;39.80;;;26.11;25.98;101765.59;5093564;28;20090;-12
2022/05/16 00:31:04;;;;;;;0.73;0.73;;;22.30;39.80;;;26.15;26.15;101773.31;5093223;28;20044;-12
2022/05/16 00:33:30;;;;;;;1.15;0.77;;;22.30;39.80;;;26.15;26.22;101769.78;5093384;28;20104;-12
2022/05/16 00:35:56;;;;;;;0.80;0.70;;;22.30;39.80;;;26.14;26.15;101771.59;5093706;28;20055;-12
2022/05/16 00:38:22;;;;;;;0.73;0.68;;;22.20;39.80;;;26.10;26.10;101764.75;5093813;28;20048;-12
2022/05/16 00:40:47;;;;;;;0.65;0.60;;;22.30;39.80;;;26.07;26.17;101751.56;5093258;28;20051;-13
2022/05/16 00:43:14;;;;;;;0.88;0.60;;;22.30;39.80;;;26.13;26.04;101759.19;5093865;28;20051;-12
2022/05/16 00:45:40;;;;;;;0.77;0.70;;;22.30;39.90;;;26.09;26.19;101754.13;5075473;28;20050;-12
2022/05/16 00:48:06;;;;;;;0.77;0.77;;;22.30;39.90;;;26.12;26.09;101760.13;5093134;28;20055;-12
2022/05/16 00:50:39;;;;;;;0.73;0.60;;;22.20;39.80;;;26.07;26.20;101755.09;5093175;28;20048;-12
2022/05/16 00:53:06;;;;;;;0.77;0.73;;;22.30;39.90;;;26.12;26.11;101759.28;5093252;28;20400;-12
2022/05/16 00:55:37;;;;;;;0.68;0.68;;;22.20;39.90;;;26.05;26.07;101748.97;5092986;28;20419;-12
2022/05/16 00:58:13;;;;;;;0.60;0.60;;;22.30;39.90;;;26.07;26.11;101754.25;5075358;28;20040;-12
2022/05/16 01:00:42;;;;;;;0.65;0.60;;;22.20;39.80;;;26.10;26.13;101759.38;5093555;28;20130;-12
2022/05/16 01:05:57;;;;;;;1.00;0.93;;;22.30;39.90;;;26.10;26.18;101756.72;5093114;28;20044;-12
2022/05/16 01:08:25;;;;;;;0.60;0.60;;;22.20;39.80;;;26.10;26.10;101753.19;5092886;28;20075;-12
2022/05/16 01:10:58;;;;;;;0.60;0.60;;;22.20;39.90;;;26.05;26.22;101738.25;5074868;28;20047;-12
2022/05/16 01:13:30;;;;;;;1.10;0.65;;;22.20;39.80;;;26.02;26.12;101726.91;5074774;28;20432;-12
2022/05/16 01:15:58;;;;;;;0.90;0.57;;;22.20;39.80;;;26.06;26.22;101739.09;5092807;28;20055;-12
2022/05/16 01:18:26;;;;;;;0.60;0.60;;;22.20;39.80;;;26.09;26.03;101732.69;5093276;28;20101;-12
2022/05/16 01:21:37;;;;;;;0.60;0.60;;;22.20;39.80;;;26.09;26.21;101732.69;5093130;28;20052;-13
2022/05/16 01:24:15;;;;;;;0.80;0.68;;;22.20;39.80;;;26.08;26.26;101731.84;5074541;28;20098;-12
2022/05/16 01:26:42;;;;;;;0.77;0.77;;;22.20;39.90;;;26.09;26.20;101722.81;5073379;28;20044;-12
2022/05/16 01:29:09;;;;;;;0.63;0.60;;;22.20;39.90;;;26.02;26.10;101709.00;5092745;28;20044;-12
2022/05/16 01:31:36;;;;;;;0.70;0.63;;;22.20;39.90;;;26.02;26.11;101706.31;5092576;28;20068;-12
2022/05/16 01:34:03;;;;;;;0.80;0.80;;;22.20;39.90;;;26.07;26.25;101709.53;5092808;28;20060;-12
2022/05/16 01:36:29;;;;;;;0.80;0.80;;;22.20;39.90;;;26.03;26.10;101701.84;5092428;28;20403;-12
2022/05/16 01:38:55;;;;;;;0.82;0.75;;;22.20;39.90;;;26.04;26.25;101698.16;5092470;28;20511;-12
2022/05/16 01:41:24;;;;;;;0.90;0.55;;;22.20;39.90;;;26.06;26.14;101701.59;5091560;28;20044;-12
2022/05/16 01:43:55;;;;;;;0.68;0.68;;;22.20;39.90;;;26.01;26.14;101693.91;5096596;28;20097;-12
2022/05/16 01:46:27;;;;;;;0.73;0.60;;;22.20;39.90;;;26.04;26.20;101703.53;5094765;28;20069;-12
2022/05/16 01:48:53;;;;;;;0.60;0.60;;;22.20;39.90;;;26.01;26.10;101701.94;5096224;28;20040;-12
2022/05/16 01:51:20;;;;;;;0.50;0.50;;;22.20;39.90;;;26.01;26.19;101695.69;5095965;28;20051;-12
2022/05/16 01:53:46;;;;;;;0.80;0.60;;;22.20;39.90;;;26.05;26.08;101697.22;5096440;28;20044;-12
2022/05/16 01:56:12;;;;;;;0.60;0.60;;;22.20;39.90;;;26.01;26.12;101684.97;5095820;28;20128;-12
2022/05/16 01:58:40;;;;;;;0.93;0.63;;;22.20;39.90;;;26.01;26.20;101680.50;5094481;28;20126;-12
2022/05/16 02:01:06;;;;;;;0.88;0.70;;;22.20;39.90;;;26.06;26.21;101690.88;5095896;28;20138;-12
2022/05/16 02:03:32;;;;;;;0.60;0.60;;;22.20;40.50;;;26.01;26.13;101679.63;5095856;28;20048;-12
2022/05/16 02:05:58;;;;;;;0.60;0.60;;;22.20;39.90;;;26.00;26.15;101678.78;5095781;28;20048;-12
2022/05/16 02:08:23;;;;;;;0.73;0.60;;;22.20;39.90;;;26.00;26.13;101676.09;5095591;28;20051;-12
2022/05/16 02:10:49;;;;;;;0.68;0.68;;;22.20;39.90;;;26.01;26.20;101679.63;5096343;28;20048;-12
2022/05/16 02:13:16;;;;;;;0.55;0.55;;;22.20;39.90;;;26.04;26.15;101676.72;5095712;28;20069;-12
2022/05/16 02:15:44;;;;;;;0.60;0.60;;;22.10;39.90;;;26.02;26.01;101678.66;5095705;28;20052;-12
2022/05/16 02:18:11;;;;;;;0.60;0.60;;;22.20;39.90;;;26.01;26.14;101671.59;5095583;28;20047;-12
2022/05/16 02:20:38;;;;;;;0.60;0.60;;;22.10;39.90;;;25.95;26.08;101664.84;5095587;28;20052;-12
2022/05/16 02:25:51;;;;;;;0.73;0.70;;;22.10;39.90;;;25.97;26.38;101676.31;5095335;28;20404;-12
2022/05/16 02:28:18;;;;;;;0.50;0.50;;;22.10;39.90;;;25.98;26.31;101669.16;5095301;28;20044;-11
2022/05/16 02:30:46;;;;;;;0.68;0.60;;;22.10;39.90;;;25.96;26.12;101663.91;5095530;28;20047;-13
2022/05/16 02:33:14;;;;;;;0.80;0.70;;;22.10;39.90;;;25.97;26.24;101664.75;5095587;28;20451;-12
2022/05/16 02:35:43;;;;;;;;;;;22.10;39.90;;;26.12;26.06;101665.47;5096363;28;20365;-12
2022/05/16 02:38:12;;;;;;;0.55;0.55;;;22.10;39.90;;;26.06;26.05;101667.63;5095181;28;19915;-12
2022/05/16 02:40:38;;;;;;;0.60;0.60;;;22.10;39.90;;;26.03;26.12;101675.03;5095841;28;20052;-12
2022/05/16 02:43:05;;;;;;;0.85;0.82;;;22.10;39.90;;;26.01;26.14;101669.78;5095397;28;20541;-11
2022/05/16 02:45:32;;;;;;;0.70;0.70;;;22.10;39.90;;;25.94;26.17;101665.78;5095130;28;20503;-12
2022/05/16 02:47:58;;;;;;;0.80;0.80;;;22.10;39.90;;;25.96;26.20;101668.38;5095010;28;20078;-12
2022/05/16 02:50:25;;;;;;;0.70;0.65;;;22.10;39.90;;;25.98;26.29;101671.81;5095040;28;20056;-12
2022/05/16 02:52:54;;;;;;;0.90;0.60;;;22.10;39.90;;;25.98;26.25;101672.69;5094603;28;20048;-12
2022/05/16 02:55:21;;;;;;;0.70;0.70;;;22.10;40.00;;;25.98;26.39;101675.34;5095527;28;20048;-12
2022/05/16 02:57:47;;;;;;;0.73;0.73;;;22.10;39.90;;;25.95;26.26;101654.13;5095145;28;20101;-12
2022/05/16 03:00:16;;;;;;;0.70;0.60;;;22.10;39.90;;;25.93;26.17;101656.03;5094944;28;20048;-12
2022/05/16 03:02:42;;;;;;;0.70;0.70;;;22.10;40.00;;;25.98;26.34;101658.44;5094909;28;20071;-12
2022/05/16 03:05:10;;;;;;;0.75;0.75;;;22.10;40.00;;;25.94;26.26;101656.88;5095081;28;20036;-12
2022/05/16 03:07:37;;;;;;;0.65;0.60;;;22.10;40.00;;;25.92;26.28;101640.06;5094593;28;20040;-12
2022/05/16 03:10:06;;;;;;;0.60;0.60;;;22.10;39.90;;;25.95;26.24;101648.78;5094759;28;20048;-12
2022/05/16 03:12:31;;;;;;;0.75;0.75;;;22.10;40.00;;;25.97;26.24;101645.97;5094711;28;20510;-12
2022/05/16 03:14:57;;;;;;;0.50;0.50;;;22.10;40.00;;;25.97;26.30;101651.34;5094405;28;20056;-12
2022/05/16 03:17:23;;;;;;;0.60;0.60;;;22.10;39.90;;;25.92;26.15;101648.94;5094146;28;20573;-11
2022/05/16 03:19:49;;;;;;;0.70;0.70;;;22.10;40.00;;;25.93;26.23;101644.44;5094405;28;20048;-12
2022/05/16 03:22:15;;;;;;;0.60;0.60;;;22.10;40.00;;;25.93;26.19;101653.34;5077653;28;20048;-12
2022/05/16 03:24:41;;;;;;;0.50;0.50;;;22.10;39.90;;;25.97;26.05;101665.59;5094160;28;20048;-12
2022/05/16 03:27:07;;;;;;;0.90;0.70;;;22.10;39.90;;;25.93;26.16;101653.34;5095086;28;20056;-13
2022/05/16 03:29:33;;;;;;;0.70;0.70;;;22.10;40.00;;;25.98;26.19;101656.59;5094765;28;20051;-12
2022/05/16 03:31:59;;;;;;;0.75;0.75;;;22.10;39.90;;;25.98;26.26;101648.56;5094786;28;20056;-12
2022/05/16 03:34:24;;;;;;;0.95;0.80;;;22.10;39.90;;;25.95;26.13;101634.50;5093030;28;20040;-12
2022/05/16 03:36:50;;;;;;;0.70;0.70;;;22.10;39.90;;;26.00;26.22;101643.94;5094594;28;20044;-12
2022/05/16 03:42:00;;;;;;;0.63;0.60;;;22.10;39.80;;;25.95;26.20;101648.78;5094609;28;20047;-12
2022/05/16 03:44:26;;;;;;;0.68;0.68;;;22.20;39.80;;;25.96;26.11;101637.09;5094170;28;20087;-12
2022/05/16 03:46:52;;;;;;;0.52;0.52;;;22.20;39.80;;;26.05;26.18;101646.28;5094428;28;20048;-12
2022/05/16 03:49:18;;;;;;;0.50;0.50;;;22.20;39.80;;;26.06;25.98;101642.63;5094200;28;20044;-12
2022/05/16 03:51:44;;;;;;;0.60;0.60;;;22.20;39.70;;;26.04;26.02;101637.41;5075887;28;20048;-12
2022/05/16 03:54:10;;;;;;;0.60;0.60;;;22.20;39.70;;;26.03;26.17;101633.00;5094533;28;20488;-12
2022/05/16 03:56:35;;;;;;;1.27;0.80;;;22.30;39.70;;;26.06;26.08;101635.47;5094097;28;20047;-12
2022/05/16 03:59:01;;;;;;;0.65;0.65;;;22.30;39.70;;;26.13;26.01;101651.09;5093951;28;20051;-12
2022/05/16 04:01:27;;;;;;;0.63;0.50;;;22.30;39.60;;;26.15;25.92;101638.47;5093932;28;20075;-12
2022/05/16 04:03:54;;;;;;;0.50;0.50;;;22.30;39.60;;;26.12;25.96;101633.31;5093312;28;20036;-12
2022/05/16 04:06:20;;;;;;;0.60;0.60;;;22.40;39.60;;;26.12;25.94;101631.47;5075868;28;20106;-12
2022/05/16 04:08:46;;;;;;;0.70;0.60;;;22.40;39.60;;;26.20;26.08;101642.50;5093806;28;20052;-12
2022/05/16 04:11:16;;;;;;;0.70;0.70;;;22.40;39.50;;;26.18;25.96;101636.41;5093745;28;20063;-12
2022/05/16 04:13:43;;;;;;;0.80;0.63;;;22.40;39.50;;;26.21;26.06;101636.19;5093797;28;20060;-12
2022/05/16 04:16:08;;;;;;;0.60;0.60;;;22.50;39.50;;;26.23;25.97;101628.03;5075594;28;20059;-12
2022/05/16 04:18:36;;;;;;;0.50;0.50;;;22.50;39.40;;;26.27;25.89;101618.78;5093619;28;20048;-12
2022/05/16 04:21:04;;;;;;;0.55;0.52;;;22.50;39.40;;;26.26;26.04;101611.72;5093529;28;20044;-12
2022/05/16 04:23:29;;;;;;;0.68;0.68;;;22.50;39.30;;;26.33;26.01;101621.03;5093674;28;20084;-12
2022/05/16 04:25:55;;;;;;;0.93;0.90;;;22.60;39.30;;;26.34;25.85;101622.72;5093500;28;20130;-12
2022/05/16 04:28:22;;;;;;;0.70;0.57;;;22.60;39.30;;;26.38;25.67;101616.19;5094161;28;20048;-11
2022/05/16 04:30:48;;;;;;;0.60;0.60;;;22.60;39.20;;;26.43;25.75;101626.59;5093524;28;20048;-12
2022/05/16 04:33:13;;;;;;;0.68;0.60;;;22.70;39.20;;;26.46;25.88;101620.97;5092401;28;20036;-12
2022/05/16 04:35:39;;;;;;;0.77;0.77;;;22.70;39.20;;;26.50;25.80;101621.63;5093443;28;20059;-12
2022/05/16 04:38:06;;;;;;;0.60;0.60;;;22.70;39.10;;;26.48;25.83;101608.34;5093770;28;20126;-12
2022/05/16 04:40:33;;;;;;;0.73;0.60;;;22.80;39.10;;;26.54;25.82;101620.41;5093523;28;20051;-12
2022/05/16 04:42:59;;;;;;;0.80;0.80;;;22.80;39.00;;;26.60;25.63;101614.59;5093624;28;20040;-12
2022/05/16 04:45:29;;;;;;;0.60;0.60;;;22.90;39.00;;;26.62;25.50;101618.03;5093738;28;20048;-12
2022/05/16 04:47:59;;;;;;;0.88;0.77;;;22.90;38.90;;;26.64;25.48;101620.63;5093247;28;20044;-12
2022/05/16 04:50:32;;;;;;;0.63;0.63;;;23.00;38.90;;;26.69;25.53;101630.03;5093056;28;20063;-12
2022/05/16 04:52:58;;;;;;;0.75;0.60;;;23.10;38.80;;;26.76;25.60;101641.16;5093285;28;20452;-12
2022/05/16 04:55:26;;;;;;;0.90;0.80;;;23.10;38.70;;;26.74;25.47;101629.69;5093514;28;20134;-12
2022/05/16 04:57:52;;;;;;;0.68;0.68;;;23.20;38.60;;;26.82;25.32;101637.19;5093138;28;20044;-12
2022/05/16 05:00:20;;;;;;;0.90;0.60;;;23.20;38.50;;;26.83;25.50;101622.78;5092810;28;20059;-12
2022/05/16 05:02:46;;;;;;;0.55;0.50;;;23.30;38.40;;;26.86;25.47;101618.03;5093250;28;20043;-12
2022/05/16 05:05:14;;;;;;;0.77;0.77;;;23.30;38.40;;;26.89;25.40;101607.06;5093235;28;20054;-12
2022/05/16 05:07:42;;;;;;;0.70;0.65;;;23.40;38.30;;;26.96;25.51;101619.09;5093049;28;20078;-12
2022/05/16 05:15:43;;;;;;;0.60;0.60;;;23.50;38.20;;;27.05;25.28;101604.09;5092951;28;20055;-12
2022/05/16 05:18:10;;;;;;;0.80;0.75;;;23.50;38.20;;;27.09;25.33;101600.19;5092831;28;20542;-12
2022/05/16 05:20:36;;;;;;;0.70;0.60;;;23.50;38.10;;;27.15;25.15;101599.72;5092698;28;20052;-12
2022/05/16 05:23:04;;;;;;;0.65;0.65;;;23.60;38.00;;;27.21;25.38;101610.97;5092629;28;20040;-12
2022/05/16 05:25:30;;;;;;;0.75;0.70;;;23.60;38.00;;;27.16;25.27;101601.44;5092563;28;20106;-12
2022/05/16 05:28:02;;;;;;;0.70;0.70;;;23.60;38.00;;;27.25;25.19;101629.41;5092469;28;20052;-12
2022/05/16 05:30:30;;;;;;;0.60;0.60;;;23.60;37.90;;;27.29;25.18;101609.44;5092915;28;20475;-12
2022/05/16 05:32:57;;;;;;;0.65;0.60;;;23.70;37.90;;;27.26;24.88;101596.19;5092670;28;20048;-11
2022/05/16 05:35:23;;;;;;;0.55;0.55;;;23.70;37.90;;;27.32;24.82;101598.44;5092725;28;20127;-12
2022/05/16 05:37:49;;;;;;;0.50;0.50;;;23.80;37.80;;;27.37;24.85;101592.72;5092462;28;20072;-12
2022/05/16 05:40:16;;;;;;;0.73;0.70;;;23.80;37.80;;;27.39;25.13;101589.94;5092783;28;20048;-12
2022/05/16 05:42:43;;;;;;;0.80;0.70;;;23.80;37.70;;;27.46;24.83;101594.69;5092638;28;20044;-12
2022/05/16 05:45:11;;;;;;;0.60;0.60;;;23.80;37.70;;;27.50;24.92;101598.00;5092170;28;20051;-12
2022/05/16 05:47:38;;;;;;;0.88;0.60;;;23.90;37.60;;;27.50;24.76;101581.88;5092355;28;20530;-12
2022/05/16 05:50:07;;;;;;;0.70;0.70;;;23.90;37.60;;;27.53;24.84;101584.31;5072478;28;20045;-12
2022/05/16 05:52:33;;;;;;;0.82;0.68;;;23.90;37.50;;;27.56;24.91;101589.44;5092259;28;20044;-12
2022/05/16 05:54:59;;;;;;;0.65;0.60;;;24.00;37.50;;;27.63;24.49;101593.38;5092563;28;20047;-12
2022/05/16 05:57:26;;;;;;;0.93;0.75;;;24.00;37.50;;;27.68;24.81;101592.97;5091993;28;20479;-12
2022/05/16 05:59:53;;;;;;;0.45;0.45;;;24.00;37.50;;;27.70;24.42;101588.38;5073718;28;20398;-12
2022/05/16 06:02:20;;;;;;;0.80;0.68;;;24.10;37.50;;;27.73;24.53;101590.78;5092348;28;20102;-12
2022/05/16 06:04:46;;;;;;;0.70;0.60;;;24.10;37.50;;;27.75;24.74;101588.84;5091965;28;20051;-12
2022/05/16 06:07:12;;;;;;;1.48;0.77;;;24.10;37.50;;;27.77;24.72;101594.97;5091651;28;20072;-12
2022/05/16 06:09:38;;;;;;;0.60;0.60;;;24.10;37.50;;;27.80;24.55;101591.16;5091705;28;20056;-12
2022/05/16 06:12:05;;;;;;;0.77;0.60;;;24.10;37.40;;;27.81;24.29;101585.66;5092423;28;20044;-12
2022/05/16 06:14:32;;;;;;;0.57;0.47;;;24.20;37.40;;;27.82;24.32;101583.84;5091745;28;20078;-13
2022/05/16 06:16:58;;;;;;;1.00;0.70;;;24.20;37.90;;;27.87;24.30;101590.56;5091981;28;20560;-12
2022/05/16 06:19:25;;;;;;;0.57;0.57;;;24.20;37.30;;;27.91;24.13;101589.31;5091852;28;20052;-12
2022/05/16 06:21:51;;;;;;;0.68;0.68;;;24.20;37.20;;;27.94;24.26;101577.50;5091917;28;20040;-12
2022/05/16 06:27:13;;;;;;;1.08;0.68;;;24.30;37.10;;;28.01;24.23;101586.78;5037060;28;20137;-12
2022/05/16 06:29:39;;;;;;;0.70;0.70;;;24.30;37.10;;;28.03;24.11;101592.03;5095058;28;20051;-12
2022/05/16 06:32:06;;;;;;;0.60;0.60;;;24.40;37.10;;;28.07;24.33;101594.34;5095440;28;20055;-12
2022/05/16 06:34:31;;;;;;;0.70;0.70;;;24.40;37.10;;;28.06;24.38;101583.72;5076933;28;20450;-12
2022/05/16 06:36:57;;;;;;;0.80;0.80;;;24.40;37.00;;;28.12;24.09;101593.09;5094837;28;20070;-12
2022/05/16 06:39:23;;;;;;;0.60;0.60;;;24.50;37.00;;;28.11;24.08;101584.19;5095014;28;20523;-12
2022/05/16 06:41:49;;;;;;;0.60;0.60;;;24.50;36.90;;;28.13;24.02;101578.69;5095140;28;20040;-12
2022/05/16 06:44:15;;;;;;;0.63;0.60;;;24.50;36.90;;;28.20;23.98;101596.03;5095645;28;20040;-12
2022/05/16 06:46:44;;;;;;;0.60;0.60;;;24.50;36.80;;;28.24;24.08;101592.13;5094676;28;20086;-12
2022/05/16 06:49:10;;;;;;;0.50;0.50;;;24.60;36.80;;;28.24;23.80;101586.75;5093706;28;20442;-12
2022/05/16 06:51:36;;;;;;;0.50;0.50;;;24.60;36.70;;;28.27;24.03;101586.50;5094973;28;20044;-12
2022/05/16 06:54:03;;;;;;;1.02;0.80;;;24.60;36.60;;;28.33;23.80;101590.50;5094679;28;20051;-12
2022/05/16 06:56:29;;;;;;;0.73;0.70;;;24.70;36.60;;;28.31;23.75;101585.25;5076341;28;20040;-12
2022/05/16 06:58:55;;;;;;;0.90;0.85;;;24.70;36.60;;;28.35;23.84;101583.16;5076049;28;20155;-12
2022/05/16 07:01:21;;;;;;;0.65;0.65;;;24.70;36.50;;;28.37;23.67;101582.06;5094483;28;20052;-11
2022/05/16 07:03:46;;;;;;;0.50;0.50;;;24.70;36.40;;;28.41;23.66;101582.66;5094353;28;20107;-12
2022/05/16 07:06:14;;;;;;;0.68;0.68;;;24.80;36.50;;;28.42;23.71;101576.31;5094228;28;20048;-12
2022/05/16 07:08:41;;;;;;;0.70;0.70;;;24.80;36.40;;;28.50;23.77;101591.81;5094576;28;20048;-12
2022/05/16 07:11:08;;;;;;;0.68;0.68;;;24.90;36.40;;;28.52;23.64;101590.72;5094392;28;20051;-12
2022/05/16 07:13:34;;;;;;;0.95;0.80;;;24.90;36.40;;;28.54;23.83;101593.28;5094304;28;20145;-12
2022/05/16 07:16:01;;;;;;;0.70;0.70;;;24.90;36.30;;;28.55;23.65;101601.22;5094200;28;20551;-12
2022/05/16 07:18:27;;;;;;;0.77;0.70;;;24.90;36.30;;;28.54;23.80;101594.13;5094116;28;20086;-11
2022/05/16 07:20:55;;;;;;;0.50;0.50;;;24.80;36.40;;;28.50;23.56;101581.03;5093949;28;20101;-12
2022/05/16 07:23:21;;;;;;;0.70;0.70;;;24.80;36.50;;;28.50;23.69;101586.41;5094222;28;20067;-12
2022/05/16 07:28:31;;;;;;;0.60;0.60;;;24.70;36.50;;;28.53;23.64;101597.78;5090142;28;20407;-12
2022/05/16 07:30:57;;;;;;;0.70;0.70;;;24.70;36.60;;;28.50;23.83;101591.81;5094040;28;20377;-12
2022/05/16 07:33:23;;;;;;;0.60;0.60;;;24.70;36.60;;;28.45;23.66;101600.25;5093941;28;20109;-12
2022/05/16 07:35:50;;;;;;;0.60;0.60;;;24.60;36.60;;;28.48;23.73;101593.78;5094370;28;20478;-11
2022/05/16 07:38:18;;;;;;;0.75;0.73;;;24.60;36.60;;;28.45;23.68;101592.19;5093515;28;20044;-12
2022/05/16 07:40:44;;;;;;;0.77;0.63;;;24.70;36.60;;;28.47;23.56;101587.53;5092807;28;20048;-12
2022/05/16 07:43:10;;;;;;;1.00;0.63;;;24.70;36.60;;;28.42;23.70;101577.16;5076080;28;20055;-12
2022/05/16 07:45:36;;;;;;;0.68;0.68;;;24.60;36.70;;;28.39;23.72;101582.78;5093839;28;20056;-12
2022/05/16 07:48:03;;;;;;;0.75;0.75;;;24.60;36.80;;;28.38;23.93;101581.06;5093525;28;20051;-12
2022/05/16 07:50:36;;;;;;;0.82;0.80;;;24.50;36.80;;;28.37;23.59;101579.38;5075401;28;20510;-12
2022/05/16 07:53:04;;;;;;;0.60;0.60;;;24.50;36.80;;;28.37;23.90;101570.47;5094007;28;20047;-12
2022/05/16 07:55:31;;;;;;;0.75;0.73;;;24.50;36.80;;;28.35;23.70;101569.72;5093783;28;20089;-12
2022/05/16 07:57:57;;;;;;;0.93;0.57;;;24.50;36.90;;;28.37;23.59;101570.47;5093479;28;20513;-12
2022/05/16 08:00:24;;;;;;;0.77;0.65;;;24.50;36.90;;;28.28;23.76;101562.19;5093641;28;20130;-12
2022/05/16 08:02:51;;;;;;;0.50;0.50;;;24.40;36.90;;;28.32;23.76;101565.47;5093899;28;20043;-12
2022/05/16 08:05:17;;;;;;;0.70;0.70;;;24.50;36.90;;;28.33;23.56;101563.63;5093677;28;20060;-13
2022/05/16 08:10:29;;;;;;;0.93;0.60;;;24.40;36.90;;;28.32;24.09;101559.22;5093325;28;20044;-12
2022/05/16 08:12:56;;;;;;;0.70;0.70;;;24.40;36.90;;;28.33;24.02;101558.25;5089504;28;20381;-12
2022/05/16 08:15:22;;;;;;;1.15;0.85;;;24.50;37.00;;;28.28;24.00;101551.41;5093172;28;20044;-11
2022/05/16 08:17:48;;;;;;;0.70;0.70;;;24.50;36.90;;;28.27;23.82;101565.84;5093016;28;20048;-11
2022/05/16 08:20:16;;;;;;;1.08;0.70;;;24.40;37.00;;;28.24;23.75;101559.84;5092815;28;20059;-12
2022/05/16 08:22:44;;;;;;;0.60;0.60;;;24.40;37.10;;;28.25;24.08;101562.41;5092958;28;20050;-11
2022/05/16 08:25:11;;;;;;;0.77;0.77;;;24.40;37.10;;;28.24;24.05;101559.84;5093161;28;20048;-12
2022/05/16 08:27:38;;;;;;;1.05;0.88;;;24.40;37.10;;;28.26;24.00;101560.56;5092962;28;20040;-12
2022/05/16 08:30:07;;;;;;;0.77;0.77;;;24.40;37.00;;;28.28;23.72;101555.91;5093053;28;20052;-11
2022/05/16 08:32:34;;;;;;;1.13;0.90;;;24.40;37.00;;;28.28;23.74;101564.00;5092122;28;20498;-11
2022/05/16 08:35:07;;;;;;;1.65;0.80;;;24.40;37.00;;;28.25;23.88;101557.03;5092988;28;20052;-12
2022/05/16 08:40:20;;;;;;;0.60;0.60;;;24.40;37.00;;;28.26;23.74;101557.88;5092820;28;20043;-12
2022/05/16 08:42:51;;;;;;;0.95;0.70;;;24.40;37.60;;;28.23;23.89;101550.06;5073152;28;20056;-11
2022/05/16 08:45:42;;;;;;;0.70;0.70;;;24.40;37.10;;;28.24;23.94;101541.03;5092538;28;20072;-11
2022/05/16 08:48:21;;;;;;;0.75;0.73;;;24.30;37.10;;;28.20;23.90;101535.06;5092696;28;20059;-12
2022/05/16 08:50:52;;;;;;;0.65;0.65;;;24.30;37.20;;;28.20;23.88;101534.19;5072718;28;20496;-12
2022/05/16 08:53:39;;;;;;;0.93;0.75;;;24.20;37.30;;;28.09;23.99;101525.19;5092917;28;20097;-11
2022/05/16 08:56:16;;;;;;;0.70;0.70;;;24.20;37.30;;;28.13;24.21;101536.53;5091145;28;20423;-11
2022/05/16 08:58:57;;;;;;;0.73;0.60;;;24.20;37.30;;;28.08;23.81;101538.75;5074055;28;20059;-11
2022/05/16 09:01:49;;;;;;;;;;;24.20;37.30;;;28.20;23.83;101531.50;5073764;28;20492;-11
2022/05/16 09:04:26;;;;;;;1.25;0.90;;;24.20;37.40;;;28.14;23.83;101532.03;5056031;28;20015;-12
2022/05/16 09:07:15;;;;;;;1.35;0.82;;;24.20;37.40;;;28.06;24.20;101532.63;5074528;28;20127;-12
2022/05/16 09:10:19;;;;;;;0.63;0.63;;;24.10;37.40;;;28.05;24.11;101525.53;5074516;28;20054;-12
2022/05/16 09:13:34;;;;;;;1.13;0.70;;;24.10;37.50;;;28.05;24.17;101525.53;5092310;28;20052;-12
2022/05/16 09:16:37;;;;;;;0.70;0.70;;;24.10;37.50;;;27.96;24.26;101526.31;5074465;28;20052;-12
2022/05/16 09:19:46;;;;;;;0.95;0.85;;;24.00;37.60;;;27.89;24.43;101524.09;5074521;28;20051;-11
2022/05/16 09:22:52;;;;;;;0.90;0.90;;;24.00;37.70;;;27.91;24.43;101540.09;5092002;28;20052;-11
2022/05/16 09:25:27;;;;;;;0.80;0.80;;;24.00;37.70;;;27.90;24.53;101527.66;5074424;28;20044;-11
2022/05/16 09:30:47;;;;;;;0.82;0.80;;;23.90;37.70;;;27.81;24.50;101521.16;5091982;28;20059;-11
2022/05/16 09:33:24;;;;;;;1.05;0.90;;;23.90;37.70;;;27.83;24.37;101529.97;5072815;28;20053;-12
2022/05/16 09:36:05;;;;;;;0.85;0.75;;;23.90;37.80;;;27.76;24.18;101522.53;5072105;28;20377;-12
2022/05/16 09:38:32;;;;;;;2.20;1.02;;;23.90;37.80;;;27.82;24.26;101525.56;5091998;28;20059;-12
2022/05/16 09:40:58;;;;;;;1.95;0.85;;;23.90;37.80;;;27.82;24.34;101530.94;5091826;28;20047;-12
2022/05/16 09:43:33;;;;;;;0.88;0.80;;;23.80;37.80;;;27.79;24.39;101512.38;5091965;28;20036;-12
2022/05/16 09:46:24;;;;;;;0.70;0.70;;;23.90;37.80;;;27.77;24.59;101514.34;5073718;28;20147;-13
2022/05/16 09:49:05;;;;;;;0.70;0.70;;;23.80;37.90;;;27.76;24.44;101509.94;5073718;28;20048;-12
2022/05/16 09:51:40;;;;;;;1.25;0.90;;;23.80;37.90;;;27.69;24.33;101490.78;5073868;28;20522;-12
2022/05/16 09:54:23;;;;;;;1.30;0.85;;;23.80;37.90;;;27.71;24.65;101496.88;5092384;28;20076;-13
2022/05/16 09:57:13;;;;;;;1.10;0.98;;;23.80;37.90;;;27.70;24.67;101500.56;5092305;28;20044;-13
2022/05/16 09:59:51;;;;;;;1.02;0.73;;;23.80;38.00;;;27.70;24.41;101494.34;5091654;28;20111;-13
2022/05/16 10:02:25;;;;;;;0.90;0.70;;;23.80;38.50;;;27.68;24.48;101497.16;5091947;28;20094;-14
2022/05/16 10:05:21;;;;;;;0.80;0.80;;;23.80;38.00;;;27.61;24.45;101482.47;5076615;28;20059;-12
2022/05/16 10:08:01;;;;;;;0.98;0.80;;;23.80;38.00;;;27.63;24.56;101490.41;5077069;28;20044;-12
2022/05/16 10:10:38;;;;;;;0.85;0.85;;;23.80;38.00;;;27.64;24.33;101487.59;5095352;28;20127;-13
2022/05/16 10:13:04;;;;;;;1.27;0.90;;;23.70;38.00;;;27.60;24.43;101493.34;5075580;28;20492;-13
2022/05/16 10:15:32;;;;;;;0.85;0.75;;;23.70;38.00;;;27.64;24.46;101492.13;5093867;28;20044;-13
2022/05/16 10:18:03;;;;;;;1.70;1.02;;;23.70;38.00;;;27.62;24.53;101489.56;5093670;28;20055;-14
2022/05/16 10:20:35;;;;;;;1.10;1.00;;;23.70;38.00;;;27.59;24.83;101481.75;5095055;28;20059;-13
2022/05/16 10:23:27;;;;;;;1.00;0.80;;;23.70;38.00;;;27.60;24.52;101474.53;5075377;28;20048;-13
2022/05/16 10:26:02;;;;;;;0.88;0.75;;;23.70;38.00;;;27.58;24.53;101473.81;5094874;28;20056;-13
2022/05/16 10:28:37;;;;;;;0.90;0.90;;;23.70;38.00;;;27.61;24.82;101487.84;5094864;28;20361;-13
2022/05/16 10:34:17;;;;;;;2.58;0.93;;;23.70;38.10;;;27.59;24.73;101472.84;5079636;28;20054;-12
2022/05/16 10:36:49;;;;;;;0.90;0.82;;;23.70;38.10;;;27.59;24.66;101479.06;5076700;28;20082;-13
2022/05/16 10:39:23;;;;;;;2.47;1.00;;;23.70;38.60;;;27.59;24.67;101471.00;5074585;28;20056;-12
2022/05/16 10:41:57;;;;;;;1.77;0.85;;;23.70;38.10;;;27.56;24.50;101456.97;5075220;28;20048;-12
2022/05/16 10:44:58;;;;;;;1.05;0.90;;;23.70;38.10;;;27.58;24.47;101458.53;5094761;28;20048;-13
2022/05/16 10:47:29;;;;;;;1.35;0.80;;;23.70;38.10;;;27.58;24.78;101465.75;5094985;28;20062;-13
2022/05/16 10:50:21;;;;;;;1.50;0.88;;;23.70;38.10;;;27.57;24.79;101467.59;5094374;28;20469;-13
2022/05/16 10:52:56;;;;;;;;;;;23.70;38.10;;;27.70;24.43;101468.31;5075266;28;20044;-13
2022/05/16 10:55:23;;;;;;;2.28;0.80;;;23.70;38.10;;;27.58;24.63;101465.75;5076117;28;19916;-13